Time;durP1;ratioP1;P1;durP2;ratioP2;P2;SDS_P1;SDS_P2;PMS_P1;PMS_P2;Temp;Humidity;BMP_temperature;BMP_pressure;BME280_temperature;BME280_humidity;BME280_pressure;Samples;Min_cycle;Max_cycle;Signal;HPM_P1;HPM_P2
2021/07/23 00:01:46;;;;;;;;;;;21.50;62.50;;;;;;5005693;28;19917;-58
2021/07/23 00:04:11;;;;;;;;;;;21.40;62.50;;;;;;5017656;28;19952;-61
2021/07/23 00:06:37;;;;;;;;;;;21.50;62.50;;;;;;5016937;28;19917;-61
2021/07/23 00:09:02;;;;;;;;;;;21.50;62.50;;;;;;5004600;28;20309;-60
2021/07/23 00:11:28;;;;;;;;;;;21.50;62.50;;;;;;4997907;28;19920;-58
2021/07/23 00:13:53;;;;;;;;;;;21.40;62.50;;;;;;4997908;28;19948;-61
2021/07/23 00:16:19;;;;;;;;;;;21.50;62.40;;;;;;4997445;28;20404;-60
2021/07/23 00:18:44;;;;;;;;;;;21.50;62.30;;;;;;4996668;28;19918;-59
2021/07/23 00:21:10;;;;;;;;;;;21.50;62.70;;;;;;5013788;28;19913;-60
2021/07/23 00:23:35;;;;;;;;;;;21.40;62.30;;;;;;5016941;28;19917;-60
2021/07/23 00:26:01;;;;;;;;;;;21.50;62.70;;;;;;5017179;28;21477;-58
2021/07/23 00:28:26;;;;;;;;;;;21.50;62.90;;;;;;4992182;28;20021;-58
2021/07/23 00:30:51;;;;;;;;;;;21.50;62.80;;;;;;4996655;28;19914;-61
2021/07/23 00:33:17;;;;;;;;;;;21.50;62.70;;;;;;4995255;28;19917;-59
2021/07/23 00:35:42;;;;;;;;;;;21.40;62.60;;;;;;5010931;28;19974;-60
2021/07/23 00:38:08;;;;;;;;;;;21.50;62.70;;;;;;5015846;28;19916;-61
2021/07/23 00:40:34;;;;;;;;;;;21.40;62.50;;;;;;5016563;28;19917;-59
2021/07/23 00:42:59;;;;;;;;;;;21.40;62.80;;;;;;5016635;28;20299;-58
2021/07/23 00:45:25;;;;;;;;;;;21.40;62.70;;;;;;5016104;28;19921;-59
2021/07/23 00:47:52;;;;;;;;;;;21.50;62.60;;;;;;5015381;28;19924;-58
2021/07/23 00:50:18;;;;;;;;;;;21.50;63.30;;;;;;5016110;28;19921;-57
2021/07/23 00:52:43;;;;;;;;;;;21.40;62.40;;;;;;5000355;28;19932;-59
2021/07/23 00:55:09;;;;;;;;;;;21.40;62.50;;;;;;4996411;28;19920;-60
2021/07/23 00:57:34;;;;;;;;;;;21.40;62.50;;;;;;4995246;28;19925;-59
2021/07/23 01:00:00;;;;;;;;;;;21.40;62.50;;;;;;4994213;28;19924;-59
2021/07/23 01:02:25;;;;;;;;;;;21.40;62.40;;;;;;4995970;28;19961;-59
2021/07/23 01:04:50;;;;;;;;;;;21.40;62.50;;;;;;4995859;28;20302;-59
2021/07/23 01:07:16;;;;;;;;;;;21.40;62.50;;;;;;5000782;28;19925;-59
2021/07/23 01:09:41;;;;;;;;;;;21.40;62.60;;;;;;4997846;28;19949;-61
2021/07/23 01:12:08;;;;;;;;;;;21.50;62.60;;;;;;4994476;28;19951;-59
2021/07/23 01:14:33;;;;;;;;;;;21.40;62.50;;;;;;4994724;28;19925;-60
2021/07/23 01:17:00;;;;;;;;;;;21.40;62.40;;;;;;4996637;28;19925;-59
2021/07/23 01:19:26;;;;;;;;;;;21.40;62.50;;;;;;4995782;28;19917;-60
2021/07/23 01:21:52;;;;;;;;;;;21.40;62.80;;;;;;5017971;28;19921;-57
2021/07/23 01:24:17;;;;;;;;;;;21.40;62.70;;;;;;5020746;28;19975;-58
2021/07/23 01:26:43;;;;;;;;;;;21.40;62.70;;;;;;5019381;28;20352;-58
2021/07/23 01:29:08;;;;;;;;;;;21.40;62.40;;;;;;5018567;28;19960;-59
2021/07/23 01:31:35;;;;;;;;;;;21.40;62.60;;;;;;4999634;28;20360;-59
2021/07/23 01:34:00;;;;;;;;;;;21.40;62.50;;;;;;4995115;28;19929;-59
2021/07/23 01:36:26;;;;;;;;;;;21.50;62.60;;;;;;5020143;28;20309;-59
2021/07/23 01:38:51;;;;;;;;;;;21.40;62.70;;;;;;5008576;28;19918;-60
2021/07/23 01:41:17;;;;;;;;;;;21.40;62.60;;;;;;4998751;28;19917;-60
2021/07/23 01:43:42;;;;;;;;;;;21.40;62.80;;;;;;4998313;28;20569;-58
2021/07/23 01:46:08;;;;;;;;;;;21.40;62.60;;;;;;4998324;28;20075;-60
2021/07/23 01:48:33;;;;;;;;;;;21.40;62.60;;;;;;5000465;28;19928;-58
2021/07/23 01:50:59;;;;;;;;;;;21.40;62.70;;;;;;5001852;28;19964;-59
2021/07/23 01:53:24;;;;;;;;;;;21.40;62.70;;;;;;5019578;28;19917;-61
2021/07/23 01:55:49;;;;;;;;;;;21.40;62.70;;;;;;5010767;28;19941;-60
2021/07/23 01:58:15;;;;;;;;;;;21.40;62.60;;;;;;4999400;28;19928;-60
2021/07/23 02:00:40;;;;;;;;;;;21.40;62.60;;;;;;4998754;28;20530;-59
2021/07/23 02:03:06;;;;;;;;;;;21.40;62.80;;;;;;4998834;28;20709;-60
2021/07/23 02:05:31;;;;;;;;;;;21.40;62.90;;;;;;4999059;28;19978;-60
2021/07/23 02:07:58;;;;;;;;;;;21.40;62.70;;;;;;4995883;28;20179;-60
2021/07/23 02:10:23;;;;;;;;;;;21.40;62.60;;;;;;4999070;28;19918;-60
2021/07/23 02:12:48;;;;;;;;;;;21.40;62.90;;;;;;4999442;28;19932;-60
2021/07/23 02:15:14;;;;;;;;;;;21.40;62.80;;;;;;4998553;28;19952;-60
2021/07/23 02:17:39;;;;;;;;;;;21.40;62.80;;;;;;4997580;28;19917;-59
2021/07/23 02:20:05;;;;;;;;;;;21.40;62.80;;;;;;5007063;28;19913;-59
2021/07/23 02:22:30;;;;;;;;;;;21.40;62.90;;;;;;5016172;28;19921;-59
2021/07/23 02:24:56;;;;;;;;;;;21.40;62.90;;;;;;5016238;28;19921;-59
2021/07/23 02:27:21;;;;;;;;;;;21.40;62.80;;;;;;5017703;28;19913;-59
2021/07/23 02:29:47;;;;;;;;;;;21.40;62.80;;;;;;5016818;28;19924;-57
2021/07/23 02:32:12;;;;;;;;;;;21.40;62.90;;;;;;5017813;28;19979;-59
2021/07/23 02:34:38;;;;;;;;;;;21.40;63.00;;;;;;5006451;28;19944;-59
2021/07/23 02:37:03;;;;;;;;;;;21.40;62.90;;;;;;4996906;28;19928;-58
2021/07/23 02:39:29;;;;;;;;;;;21.40;63.10;;;;;;4997152;28;19913;-58
2021/07/23 02:41:54;;;;;;;;;;;21.40;63.00;;;;;;4999802;28;20036;-59
2021/07/23 02:44:19;;;;;;;;;;;21.40;63.10;;;;;;5018542;28;19925;-59
2021/07/23 02:46:45;;;;;;;;;;;21.40;63.10;;;;;;5002893;28;19918;-60
2021/07/23 02:49:10;;;;;;;;;;;21.40;63.20;;;;;;4998206;28;19941;-59
2021/07/23 02:51:36;;;;;;;;;;;21.40;63.10;;;;;;4998949;28;20024;-59
2021/07/23 02:54:01;;;;;;;;;;;21.40;63.10;;;;;;4998478;28;19917;-61
2021/07/23 02:56:27;;;;;;;;;;;21.40;63.10;;;;;;4998925;28;24555;-60
2021/07/23 02:58:52;;;;;;;;;;;21.40;63.10;;;;;;5008307;28;20469;-60
2021/07/23 03:01:18;;;;;;;;;;;21.40;63.30;;;;;;5018669;28;19922;-59
2021/07/23 03:03:43;;;;;;;;;;;21.40;63.30;;;;;;5018021;28;19925;-60
2021/07/23 03:06:08;;;;;;;;;;;21.40;63.30;;;;;;5017235;28;19941;-60
2021/07/23 03:08:34;;;;;;;;;;;21.40;63.20;;;;;;5006270;28;20274;-59
2021/07/23 03:11:00;;;;;;;;;;;21.40;63.40;;;;;;4997005;28;19917;-60
2021/07/23 03:13:26;;;;;;;;;;;21.40;63.30;;;;;;4998656;28;20267;-59
2021/07/23 03:15:51;;;;;;;;;;;21.40;63.40;;;;;;4998572;28;19921;-59
2021/07/23 03:18:17;;;;;;;;;;;21.40;63.60;;;;;;5011857;28;20309;-60
2021/07/23 03:20:42;;;;;;;;;;;21.40;63.30;;;;;;5017013;28;19913;-61
2021/07/23 03:23:08;;;;;;;;;;;21.30;63.20;;;;;;4998737;28;20613;-58
2021/07/23 03:25:33;;;;;;;;;;;21.40;63.20;;;;;;4998716;28;19923;-58
2021/07/23 03:27:59;;;;;;;;;;;21.40;63.40;;;;;;5017038;28;20393;-61
2021/07/23 03:30:25;;;;;;;;;;;21.30;63.10;;;;;;5016440;28;19936;-60
2021/07/23 03:32:50;;;;;;;;;;;21.40;64.00;;;;;;5017202;28;19917;-59
2021/07/23 03:35:16;;;;;;;;;;;21.30;63.90;;;;;;5016349;28;19921;-60
2021/07/23 03:37:41;;;;;;;;;;;21.40;64.10;;;;;;5016645;28;20459;-60
2021/07/23 03:40:07;;;;;;;;;;;21.40;64.00;;;;;;4995953;28;19921;-59
2021/07/23 03:42:33;;;;;;;;;;;21.40;63.90;;;;;;4995137;28;19918;-58
2021/07/23 03:44:58;;;;;;;;;;;21.30;63.90;;;;;;4996046;28;19926;-59
2021/07/23 03:47:24;;;;;;;;;;;21.30;63.90;;;;;;4996199;28;20441;-59
2021/07/23 03:49:49;;;;;;;;;;;21.30;63.80;;;;;;4996881;28;20016;-58
2021/07/23 03:52:15;;;;;;;;;;;21.30;63.90;;;;;;4995665;28;20422;-63
2021/07/23 03:54:40;;;;;;;;;;;21.30;63.90;;;;;;4996980;28;19968;-63
2021/07/23 03:57:05;;;;;;;;;;;21.30;63.90;;;;;;4995194;28;19923;-62
2021/07/23 03:59:34;;;;;;;;;;;21.30;63.90;;;;;;4996477;28;19921;-62
2021/07/23 04:01:59;;;;;;;;;;;21.20;63.90;;;;;;4995381;28;19925;-63
2021/07/23 04:04:25;;;;;;;;;;;21.30;63.90;;;;;;5004671;28;19924;-63
2021/07/23 04:06:54;;;;;;;;;;;21.20;63.90;;;;;;5016314;28;19924;-63
2021/07/23 04:09:19;;;;;;;;;;;21.20;64.00;;;;;;4997302;28;20004;-63
2021/07/23 04:11:49;;;;;;;;;;;21.20;64.00;;;;;;4996439;28;19920;-58
2021/07/23 04:14:15;;;;;;;;;;;21.20;64.00;;;;;;5011990;22;19925;-59
2021/07/23 04:16:40;;;;;;;;;;;21.20;64.10;;;;;;4978542;28;20017;-58
2021/07/23 04:19:06;;;;;;;;;;;21.20;64.10;;;;;;4970255;28;20471;-59
2021/07/23 04:21:31;;;;;;;;;;;21.20;64.10;;;;;;4958900;28;19949;-59
2021/07/23 04:23:58;;;;;;;;;;;21.20;64.00;;;;;;4975312;28;19918;-59
2021/07/23 04:26:23;;;;;;;;;;;21.20;64.10;;;;;;4977563;28;20004;-60
2021/07/23 04:28:49;;;;;;;;;;;21.20;64.10;;;;;;4966814;28;19932;-58
2021/07/23 04:31:14;;;;;;;;;;;21.20;64.10;;;;;;4963617;28;20691;-60
2021/07/23 04:33:40;;;;;;;;;;;21.20;64.00;;;;;;4963284;28;19921;-58
2021/07/23 04:36:05;;;;;;;;;;;21.20;64.00;;;;;;4957215;28;19910;-59
2021/07/23 04:38:31;;;;;;;;;;;21.20;64.10;;;;;;4956888;28;19996;-60
2021/07/23 04:40:56;;;;;;;;;;;21.20;64.10;;;;;;4956899;28;20367;-61
2021/07/23 04:43:21;;;;;;;;;;;21.20;64.30;;;;;;4957055;28;19918;-61
2021/07/23 04:45:47;;;;;;;;;;;21.20;64.30;;;;;;4956654;28;19922;-59
2021/07/23 04:48:12;;;;;;;;;;;21.10;64.40;;;;;;4956105;28;19914;-60
2021/07/23 04:50:38;;;;;;;;;;;21.20;64.50;;;;;;4956868;28;20343;-60
2021/07/23 04:53:03;;;;;;;;;;;21.20;64.70;;;;;;4955633;28;19918;-60
2021/07/23 04:55:29;;;;;;;;;;;21.10;64.70;;;;;;4957162;28;19922;-61
2021/07/23 04:57:55;;;;;;;;;;;21.20;64.80;;;;;;4956967;28;19918;-59
2021/07/23 05:00:20;;;;;;;;;;;21.10;64.80;;;;;;4955459;28;20732;-59
2021/07/23 05:02:51;;;;;;;;;;;21.20;64.90;;;;;;4957115;28;20005;-61
2021/07/23 05:05:17;;;;;;;;;;;21.20;64.90;;;;;;4955166;28;20012;-59
2021/07/23 05:07:42;;;;;;;;;;;21.20;64.90;;;;;;4957021;28;20340;-58
2021/07/23 05:10:08;;;;;;;;;;;21.20;64.80;;;;;;4976817;28;19914;-59
2021/07/23 05:12:34;;;;;;;;;;;21.20;65.00;;;;;;4957126;28;19918;-60
2021/07/23 05:14:59;;;;;;;;;;;21.20;65.60;;;;;;4956447;28;20607;-60
2021/07/23 05:17:25;;;;;;;;;;;21.20;65.80;;;;;;4955269;28;19926;-58
2021/07/23 05:19:50;;;;;;;;;;;21.20;65.60;;;;;;4956351;28;19972;-60
2021/07/23 05:22:16;;;;;;;;;;;21.10;65.90;;;;;;4955202;28;20580;-59
2021/07/23 05:24:41;;;;;;;;;;;21.10;66.30;;;;;;4956577;28;19918;-57
2021/07/23 05:27:06;;;;;;;;;;;21.10;66.60;;;;;;4956993;28;19918;-58
2021/07/23 05:29:32;;;;;;;;;;;21.00;66.40;;;;;;4956183;28;19922;-60
2021/07/23 05:31:59;;;;;;;;;;;21.00;66.40;;;;;;4955426;28;22289;-59
2021/07/23 05:34:25;;;;;;;;;;;21.00;66.50;;;;;;4956731;28;19925;-59
2021/07/23 05:36:50;;;;;;;;;;;21.00;66.70;;;;;;4954836;28;19953;-59
2021/07/23 05:39:15;;;;;;;;;;;21.00;67.10;;;;;;4957175;28;19919;-59
2021/07/23 05:41:41;;;;;;;;;;;21.00;67.50;;;;;;4976764;28;19920;-58
2021/07/23 05:44:06;;;;;;;;;;;21.00;67.20;;;;;;4976846;28;19984;-57
2021/07/23 05:46:32;;;;;;;;;;;21.00;66.70;;;;;;4975858;28;20275;-58
2021/07/23 05:48:58;;;;;;;;;;;21.00;66.20;;;;;;4975937;28;20037;-60
2021/07/23 05:51:23;;;;;;;;;;;21.00;65.50;;;;;;4962351;28;19921;-60
2021/07/23 05:53:48;;;;;;;;;;;21.00;65.50;;;;;;4956994;28;19922;-60
2021/07/23 05:56:14;;;;;;;;;;;21.00;65.90;;;;;;4947467;28;19922;-60
2021/07/23 05:58:39;;;;;;;;;;;21.00;66.40;;;;;;4955963;28;19915;-60
2021/07/23 06:01:06;;;;;;;;;;;21.00;66.70;;;;;;4956841;28;19922;-60
2021/07/23 06:03:31;;;;;;;;;;;21.00;67.00;;;;;;4956506;28;19918;-60
2021/07/23 06:05:57;;;;;;;;;;;21.00;67.30;;;;;;4957903;28;20027;-61
2021/07/23 06:08:22;;;;;;;;;;;21.00;67.40;;;;;;4967184;28;19921;-59
2021/07/23 06:10:47;;;;;;;;;;;21.00;67.50;;;;;;4979566;28;19921;-59
2021/07/23 06:13:13;;;;;;;;;;;21.00;67.30;;;;;;4980151;28;19925;-58
2021/07/23 06:15:38;;;;;;;;;;;21.00;67.20;;;;;;4979667;28;19918;-61
2021/07/23 06:18:04;;;;;;;;;;;21.00;66.90;;;;;;4976327;28;19914;-60
2021/07/23 06:20:29;;;;;;;;;;;21.10;66.70;;;;;;4968020;28;19976;-59
2021/07/23 06:22:58;;;;;;;;;;;21.10;66.80;;;;;;4960621;28;19914;-60
2021/07/23 06:25:23;;;;;;;;;;;21.10;67.10;;;;;;4943385;28;20012;-58
2021/07/23 06:27:49;;;;;;;;;;;21.10;67.00;;;;;;4960256;28;20009;-60
2021/07/23 06:30:14;;;;;;;;;;;21.10;67.00;;;;;;4960240;28;20204;-58
2021/07/23 06:32:40;;;;;;;;;;;21.10;67.00;;;;;;4960359;28;19949;-61
2021/07/23 06:35:05;;;;;;;;;;;21.10;67.00;;;;;;4958251;28;19929;-60
2021/07/23 06:37:31;;;;;;;;;;;21.10;67.20;;;;;;4964732;28;19914;-61
2021/07/23 06:39:56;;;;;;;;;;;21.10;67.30;;;;;;4960073;28;19918;-61
2021/07/23 06:42:22;;;;;;;;;;;21.10;67.40;;;;;;4962980;28;19921;-57
2021/07/23 06:44:50;;;;;;;;;;;21.00;67.50;;;;;;4979253;28;19962;-58
2021/07/23 06:47:16;;;;;;;;;;;21.00;67.40;;;;;;4979538;28;20013;-55
2021/07/23 06:49:41;;;;;;;;;;;21.00;67.60;;;;;;4978549;28;20621;-59
2021/07/23 06:52:07;;;;;;;;;;;21.10;67.40;;;;;;4979862;28;19917;-59
2021/07/23 06:54:33;;;;;;;;;;;21.10;67.60;;;;;;4966027;28;19914;-60
2021/07/23 06:57:01;;;;;;;;;;;21.10;67.60;;;;;;4960392;28;19922;-60
2021/07/23 06:59:26;;;;;;;;;;;21.10;67.60;;;;;;4958992;28;19920;-59
2021/07/23 07:01:52;;;;;;;;;;;21.10;67.40;;;;;;4960141;28;19919;-57
2021/07/23 07:04:17;;;;;;;;;;;21.10;67.20;;;;;;4960071;28;20026;-60
2021/07/23 07:06:43;;;;;;;;;;;21.00;67.20;;;;;;4965355;28;20082;-60
2021/07/23 07:09:08;;;;;;;;;;;21.00;67.50;;;;;;4978911;28;19914;-59
2021/07/23 07:11:34;;;;;;;;;;;20.90;67.60;;;;;;4979158;28;19913;-59
2021/07/23 07:13:59;;;;;;;;;;;20.90;67.40;;;;;;4978973;28;19936;-59
2021/07/23 07:16:25;;;;;;;;;;;20.90;67.10;;;;;;4977331;28;19922;-60
2021/07/23 07:18:50;;;;;;;;;;;21.00;66.90;;;;;;4978376;28;20027;-60
2021/07/23 07:21:15;;;;;;;;;;;21.00;66.30;;;;;;4979639;28;20406;-59
2021/07/23 07:23:41;;;;;;;;;;;21.00;66.70;;;;;;4977779;28;19922;-60
2021/07/23 07:26:10;;;;;;;;;;;21.00;66.80;;;;;;4959437;28;20017;-58
2021/07/23 07:28:35;;;;;;;;;;;21.00;66.70;;;;;;4959068;28;20674;-60
2021/07/23 07:31:01;;;;;;;;;;;21.00;66.50;;;;;;4959128;28;19918;-60
2021/07/23 07:33:28;;;;;;;;;;;21.00;66.20;;;;;;4965061;28;20242;-60
2021/07/23 07:35:53;;;;;;;;;;;21.00;65.80;;;;;;4959373;28;20027;-59
2021/07/23 07:38:19;;;;;;;;;;;21.10;65.90;;;;;;4976325;28;19922;-61
2021/07/23 07:40:44;;;;;;;;;;;21.00;66.10;;;;;;4977463;28;19929;-60
2021/07/23 07:43:10;;;;;;;;;;;21.10;66.40;;;;;;4979022;28;20646;-55
2021/07/23 07:45:38;;;;;;;;;;;21.10;66.20;;;;;;4975020;28;19922;-60
2021/07/23 07:48:04;;;;;;;;;;;21.10;66.00;;;;;;4958384;28;20375;-57
2021/07/23 07:50:30;;;;;;;;;;;21.10;65.40;;;;;;4956969;28;19929;-60
2021/07/23 07:52:55;;;;;;;;;;;21.10;65.20;;;;;;4958494;28;19921;-60
2021/07/23 07:55:20;;;;;;;;;;;21.10;65.20;;;;;;4953587;28;19928;-60
2021/07/23 07:57:46;;;;;;;;;;;21.10;65.00;;;;;;4974507;28;19922;-60
2021/07/23 08:00:11;;;;;;;;;;;21.10;64.50;;;;;;4958671;28;20425;-60
2021/07/23 08:02:37;;;;;;;;;;;21.10;64.60;;;;;;4958753;28;19924;-60
2021/07/23 08:05:03;;;;;;;;;;;21.10;64.70;;;;;;4967622;28;19922;-61
2021/07/23 08:07:31;;;;;;;;;;;21.10;64.80;;;;;;4957616;28;20391;-58
2021/07/23 08:09:59;;;;;;;;;;;21.10;64.50;;;;;;4975802;28;19925;-60
2021/07/23 08:12:24;;;;;;;;;;;21.10;64.30;;;;;;4962334;28;20383;-56
2021/07/23 08:14:50;;;;;;;;;;;21.10;64.50;;;;;;4968404;28;19932;-60
2021/07/23 08:17:15;;;;;;;;;;;21.10;64.10;;;;;;4979003;28;19921;-58
2021/07/23 08:19:41;;;;;;;;;;;21.00;63.80;;;;;;4977900;28;19929;-60
2021/07/23 08:22:06;;;;;;;;;;;21.10;63.70;;;;;;4960742;28;19915;-60
2021/07/23 08:24:32;;;;;;;;;;;21.10;63.60;;;;;;4958604;28;19981;-60
2021/07/23 08:26:57;;;;;;;;;;;21.10;63.60;;;;;;4958336;28;19953;-57
2021/07/23 08:29:23;;;;;;;;;;;21.10;63.50;;;;;;4973673;28;19925;-57
2021/07/23 08:31:48;;;;;;;;;;;21.10;63.40;;;;;;4972388;28;20169;-58
2021/07/23 08:34:14;;;;;;;;;;;21.10;63.40;;;;;;4977447;28;19914;-58
2021/07/23 08:36:40;;;;;;;;;;;21.10;63.40;;;;;;4971386;28;19929;-58
2021/07/23 08:39:05;;;;;;;;;;;21.10;63.50;;;;;;4970794;28;19914;-58
2021/07/23 08:41:31;;;;;;;;;;;21.10;63.40;;;;;;4966896;28;19941;-60
2021/07/23 08:43:56;;;;;;;;;;;21.10;63.30;;;;;;4969082;28;20627;-58
2021/07/23 08:46:21;;;;;;;;;;;21.10;61.90;;;;;;4957773;28;20436;-59
2021/07/23 08:48:47;;;;;;;;;;;21.10;61.90;;;;;;4956637;28;19921;-58
2021/07/23 08:51:17;;;;;;;;;;;21.10;61.60;;;;;;4962070;28;19933;-59
2021/07/23 08:53:43;;;;;;;;;;;21.00;61.50;;;;;;4970649;28;19918;-60
2021/07/23 08:56:08;;;;;;;;;;;21.10;61.00;;;;;;4960494;28;20387;-61
2021/07/23 08:58:36;;;;;;;;;;;21.10;61.00;;;;;;4967725;28;19953;-59
2021/07/23 09:01:01;;;;;;;;;;;21.10;61.10;;;;;;4975155;28;19922;-59
2021/07/23 09:03:31;;;;;;;;;;;21.10;61.10;;;;;;4977233;28;19914;-60
2021/07/23 09:05:58;;;;;;;;;;;21.10;61.30;;;;;;4976523;28;19914;-61
2021/07/23 09:08:23;;;;;;;;;;;21.10;62.10;;;;;;4970033;28;19918;-61
2021/07/23 09:11:01;;;;;;;;;;;21.10;61.40;;;;;;4977941;28;19924;-58
2021/07/23 09:13:27;;;;;;;;;;;21.00;61.40;;;;;;4963107;28;20757;-60
2021/07/23 09:15:53;;;;;;;;;;;21.10;61.10;;;;;;4976045;28;19918;-59
2021/07/23 09:18:29;;;;;;;;;;;21.10;61.20;;;;;;4975676;28;19913;-60
2021/07/23 09:20:57;;;;;;;;;;;21.10;60.80;;;;;;4961019;28;20665;-59
2021/07/23 09:23:30;;;;;;;;;;;21.00;60.60;;;;;;4973584;28;20618;-59
2021/07/23 09:25:57;;;;;;;;;;;21.10;60.80;;;;;;4959279;28;19926;-61
2021/07/23 09:28:23;;;;;;;;;;;21.00;60.50;;;;;;4958001;28;19921;-58
2021/07/23 09:30:48;;;;;;;;;;;21.00;61.30;;;;;;4957433;28;20594;-59
2021/07/23 09:33:14;;;;;;;;;;;21.00;60.60;;;;;;4957846;28;19915;-61
2021/07/23 09:35:52;;;;;;;;;;;21.00;60.70;;;;;;4955834;28;20395;-57
2021/07/23 09:38:18;;;;;;;;;;;21.00;60.70;;;;;;4962119;28;20488;-57
2021/07/23 09:40:44;;;;;;;;;;;21.00;60.50;;;;;;4975280;28;19918;-58
2021/07/23 09:43:10;;;;;;;;;;;21.10;60.50;;;;;;4969295;28;19945;-60
2021/07/23 09:45:35;;;;;;;;;;;21.10;60.50;;;;;;4960845;28;19952;-57
2021/07/23 09:48:10;;;;;;;;;;;21.10;60.70;;;;;;4960526;28;20583;-59
2021/07/23 09:50:39;;;;;;;;;;;21.10;60.90;;;;;;4968455;28;19914;-59
2021/07/23 09:53:05;;;;;;;;;;;21.10;60.70;;;;;;4975665;28;19957;-57
2021/07/23 09:55:31;;;;;;;;;;;21.10;61.00;;;;;;4968110;28;20390;-57
2021/07/23 09:57:57;;;;;;;;;;;21.10;61.00;;;;;;4960739;28;19929;-58
2021/07/23 10:00:23;;;;;;;;;;;21.10;61.00;;;;;;4953511;28;19917;-57
2021/07/23 10:02:49;;;;;;;;;;;21.10;60.90;;;;;;4969561;28;19922;-58
2021/07/23 10:05:15;;;;;;;;;;;21.10;60.90;;;;;;4956934;28;19918;-59
2021/07/23 10:07:45;;;;;;;;;;;21.10;60.80;;;;;;4968124;28;19925;-58
2021/07/23 10:10:12;;;;;;;;;;;21.10;60.90;;;;;;4978887;28;19926;-59
2021/07/23 10:12:37;;;;;;;;;;;21.10;61.00;;;;;;4964675;28;19915;-59
2021/07/23 10:15:03;;;;;;;;;;;21.10;61.30;;;;;;5017465;22;20421;-72
2021/07/23 10:17:28;;;;;;;;;;;21.10;61.20;;;;;;5014726;28;19972;-77
2021/07/23 10:19:57;;;;;;;;;;;21.10;61.10;;;;;;5017103;28;19913;-72
2021/07/23 10:22:23;;;;;;;;;;;21.10;61.00;;;;;;5017422;28;19917;-73
2021/07/23 10:24:49;;;;;;;;;;;21.10;61.00;;;;;;5012612;28;19933;-72
2021/07/23 10:27:14;;;;;;;;;;;21.10;60.70;;;;;;5009555;28;19921;-72
2021/07/23 10:29:43;;;;;;;;;;;21.10;60.90;;;;;;5015059;28;19913;-72
2021/07/23 10:32:27;;;;;;;;;;;21.10;61.40;;;;;;5012436;28;19917;-72
2021/07/23 10:34:53;;;;;;;;;;;21.10;61.40;;;;;;5019464;28;20007;-73
2021/07/23 10:37:31;;;;;;;;;;;21.10;61.10;;;;;;5016640;28;19925;-72
2021/07/23 10:40:08;;;;;;;;;;;21.10;61.00;;;;;;5015382;28;19972;-72
2021/07/23 10:42:34;;;;;;;;;;;21.10;60.90;;;;;;5008993;28;19918;-70
2021/07/23 10:45:00;;;;;;;;;;;21.10;60.60;;;;;;5012836;28;19921;-77
2021/07/23 10:47:36;;;;;;;;;;;21.10;60.40;;;;;;5017877;28;20343;-73
2021/07/23 10:50:02;;;;;;;;;;;21.10;60.30;;;;;;5013566;28;19913;-74
2021/07/23 10:52:28;;;;;;;;;;;21.10;60.30;;;;;;5014489;28;19975;-72
2021/07/23 10:55:12;;;;;;;;;;;21.10;60.40;;;;;;5009876;28;20430;-75
2021/07/23 10:57:38;;;;;;;;;;;21.20;60.80;;;;;;5006907;28;19935;-74
2021/07/23 11:00:04;;;;;;;;;;;21.10;60.90;;;;;;5015536;28;20390;-73
2021/07/23 11:02:29;;;;;;;;;;;21.20;61.10;;;;;;5003372;28;20000;-74
2021/07/23 11:05:02;;;;;;;;;;;21.20;61.00;;;;;;5031184;28;20370;-73
2021/07/23 11:07:28;;;;;;;;;;;21.20;60.90;;;;;;5060420;28;20390;-73
2021/07/23 11:09:53;;;;;;;;;;;21.10;61.00;;;;;;5045089;28;19913;-75
2021/07/23 11:12:19;;;;;;;;;;;21.20;61.30;;;;;;5058950;28;20387;-73
2021/07/23 11:14:54;;;;;;;;;;;21.20;61.10;;;;;;5050109;28;19928;-72
2021/07/23 11:17:19;;;;;;;;;;;21.20;61.00;;;;;;5051560;28;20249;-73
2021/07/23 11:19:45;;;;;;;;;;;21.20;60.80;;;;;;5051102;28;20518;-76
2021/07/23 11:22:11;;;;;;;;;;;21.20;60.60;;;;;;5045953;28;19913;-73
2021/07/23 11:24:37;;;;;;;;;;;21.20;60.60;;;;;;5056068;28;19944;-72
2021/07/23 11:27:02;;;;;;;;;;;21.20;60.50;;;;;;5060940;28;19920;-74
2021/07/23 11:29:35;;;;;;;;;;;21.20;60.80;;;;;;5055897;28;19916;-72
2021/07/23 11:32:08;;;;;;;;;;;21.20;61.00;;;;;;5032348;28;19979;-74
2021/07/23 11:34:44;;;;;;;;;;;21.20;60.90;;;;;;5053104;28;19912;-71
2021/07/23 11:37:29;;;;;;;;;;;21.20;60.60;;;;;;5036055;28;19939;-72
2021/07/23 11:39:58;;;;;;;;;;;21.30;60.50;;;;;;5048198;28;19917;-70
2021/07/23 11:42:24;;;;;;;;;;;21.20;60.60;;;;;;5054955;28;20408;-73
2021/07/23 11:44:53;;;;;;;;;;;21.30;60.70;;;;;;5059354;28;19927;-71
2021/07/23 11:47:27;;;;;;;;;;;21.30;60.90;;;;;;5050006;28;19921;-77
2021/07/23 11:49:54;;;;;;;;;;;21.30;60.90;;;;;;5060365;28;20539;-73
2021/07/23 11:52:20;;;;;;;;;;;21.30;60.80;;;;;;5054525;28;19917;-71
2021/07/23 11:54:45;;;;;;;;;;;21.30;60.80;;;;;;5063420;28;19927;-72
2021/07/23 11:57:11;;;;;;;;;;;21.30;61.00;;;;;;5049944;28;19912;-70
2021/07/23 11:59:37;;;;;;;;;;;21.30;60.90;;;;;;5053121;28;19913;-73
2021/07/23 12:02:05;;;;;;;;;;;21.30;61.30;;;;;;5047101;28;19917;-71
2021/07/23 12:04:31;;;;;;;;;;;21.30;61.30;;;;;;5047645;28;19959;-71
2021/07/23 12:06:56;;;;;;;;;;;21.30;61.00;;;;;;5061701;28;19951;-71
2021/07/23 12:09:22;;;;;;;;;;;21.30;60.70;;;;;;5047930;28;19917;-69
2021/07/23 12:11:47;;;;;;;;;;;21.30;60.80;;;;;;5030812;28;20324;-71
2021/07/23 12:14:14;;;;;;;;;;;21.30;60.90;;;;;;5059249;28;19926;-73
2021/07/23 12:16:39;;;;;;;;;;;21.30;60.90;;;;;;5053171;28;19919;-73
2021/07/23 12:19:08;;;;;;;;;;;21.30;60.90;;;;;;5058109;28;19920;-71
2021/07/23 12:21:34;;;;;;;;;;;21.30;61.00;;;;;;5062129;28;20380;-71
2021/07/23 12:24:01;;;;;;;;;;;21.30;61.10;;;;;;5060116;28;20015;-72
2021/07/23 12:26:30;;;;;;;;;;;21.30;61.10;;;;;;5060664;28;19923;-70
2021/07/23 12:28:56;;;;;;;;;;;21.30;60.90;;;;;;5053345;28;19913;-72
2021/07/23 12:31:22;;;;;;;;;;;21.40;61.10;;;;;;5048285;28;19959;-72
2021/07/23 12:34:00;;;;;;;;;;;21.40;61.00;;;;;;5059137;28;19948;-72
2021/07/23 12:36:25;;;;;;;;;;;21.40;61.10;;;;;;5056252;28;19917;-71
2021/07/23 12:39:03;;;;;;;;;;;21.40;61.20;;;;;;5059643;28;19913;-70
2021/07/23 12:41:28;;;;;;;;;;;21.40;61.10;;;;;;5056667;28;19921;-72
2021/07/23 12:44:04;;;;;;;;;;;21.40;60.90;;;;;;5054072;28;19917;-71
2021/07/23 12:46:30;;;;;;;;;;;21.40;60.80;;;;;;5068004;28;20454;-70
2021/07/23 12:48:55;;;;;;;;;;;21.40;60.90;;;;;;5061373;28;19912;-68
2021/07/23 12:51:24;;;;;;;;;;;21.40;60.80;;;;;;5055388;28;20279;-70
2021/07/23 12:53:55;;;;;;;;;;;21.40;60.40;;;;;;5059915;28;19916;-70
2021/07/23 12:56:27;;;;;;;;;;;21.50;60.50;;;;;;5053743;28;19913;-72
2021/07/23 12:58:53;;;;;;;;;;;21.50;60.80;;;;;;5055515;28;20111;-72
2021/07/23 13:01:19;;;;;;;;;;;21.50;60.80;;;;;;5061707;28;20814;-73
2021/07/23 13:03:44;;;;;;;;;;;21.50;61.00;;;;;;5051262;28;19917;-73
2021/07/23 13:06:12;;;;;;;;;;;21.50;61.10;;;;;;5054219;28;19917;-72
2021/07/23 13:08:38;;;;;;;;;;;21.50;61.10;;;;;;5057883;28;19923;-73
2021/07/23 13:11:08;;;;;;;;;;;21.50;60.90;;;;;;5064769;28;19997;-73
2021/07/23 13:13:34;;;;;;;;;;;21.50;60.80;;;;;;5056806;28;20497;-73
2021/07/23 13:15:59;;;;;;;;;;;21.50;60.80;;;;;;5056913;28;19925;-71
2021/07/23 13:18:25;;;;;;;;;;;21.50;60.80;;;;;;5057002;28;19923;-73
2021/07/23 13:20:50;;;;;;;;;;;21.50;60.80;;;;;;5064181;28;20428;-71
2021/07/23 13:23:16;;;;;;;;;;;21.50;61.00;;;;;;5068370;28;19917;-70
2021/07/23 13:25:41;;;;;;;;;;;21.50;61.00;;;;;;5064518;28;19917;-72
2021/07/23 13:28:07;;;;;;;;;;;21.50;60.80;;;;;;5062983;28;19920;-68
2021/07/23 13:30:32;;;;;;;;;;;21.50;60.80;;;;;;5034471;28;19917;-69
2021/07/23 13:32:58;;;;;;;;;;;21.50;60.70;;;;;;5068873;28;19947;-70
2021/07/23 13:35:23;;;;;;;;;;;21.50;60.80;;;;;;5055122;28;19917;-69
2021/07/23 13:37:52;;;;;;;;;;;21.60;61.00;;;;;;5056669;28;19917;-70
2021/07/23 13:40:20;;;;;;;;;;;21.60;61.10;;;;;;5052299;28;19935;-71
2021/07/23 13:42:47;;;;;;;;;;;21.60;61.20;;;;;;5062437;28;19916;-72
2021/07/23 13:45:13;;;;;;;;;;;21.60;61.10;;;;;;5052865;28;20028;-72
2021/07/23 13:47:39;;;;;;;;;;;21.60;61.00;;;;;;5065354;28;19952;-71
2021/07/23 13:50:05;;;;;;;;;;;21.60;61.10;;;;;;5045340;28;19931;-72
2021/07/23 13:52:30;;;;;;;;;;;21.60;61.20;;;;;;5070713;28;19920;-73
2021/07/23 13:54:56;;;;;;;;;;;21.60;61.30;;;;;;5059790;28;19916;-72
2021/07/23 13:57:21;;;;;;;;;;;21.60;61.40;;;;;;5056335;28;19916;-72
2021/07/23 13:59:47;;;;;;;;;;;21.60;61.40;;;;;;5054553;28;19923;-71
2021/07/23 14:02:12;;;;;;;;;;;21.60;61.40;;;;;;5056347;28;19921;-69
2021/07/23 14:04:38;;;;;;;;;;;21.70;61.40;;;;;;5048269;28;20564;-69
2021/07/23 14:07:05;;;;;;;;;;;21.60;61.50;;;;;;5050562;28;19917;-71
2021/07/23 14:09:31;;;;;;;;;;;21.70;61.50;;;;;;5051816;28;19917;-72
2021/07/23 14:11:56;;;;;;;;;;;21.70;61.80;;;;;;5068337;28;19938;-73